Time;durP1;ratioP1;P1;durP2;ratioP2;P2;SDS_P1;SDS_P2;PMS_P1;PMS_P2;Temp;Humidity;BMP_temperature;BMP_pressure;BME280_temperature;BME280_humidity;BME280_pressure;Samples;Min_cycle;Max_cycle;Signal;HPM_P1;HPM_P2
2024/03/25 00:00:52;;;;;;;6.20;2.78;;;;;;;11.00;50.33;99597.19;5059572;28;20056;-75
2024/03/25 00:03:56;;;;;;;4.55;2.00;;;;;;;10.62;50.72;99597.50;5071403;28;20051;-75
2024/03/25 00:07:01;;;;;;;5.10;1.80;;;;;;;10.91;49.99;99605.31;5071508;28;20131;-74
2024/03/25 00:10:08;;;;;;;4.57;1.70;;;;;;;11.09;48.74;99598.06;5085048;28;20051;-75
2024/03/25 00:13:12;;;;;;;4.85;1.90;;;;;;;10.72;49.10;99603.63;5093114;28;20066;-74
2024/03/25 00:16:17;;;;;;;5.85;1.85;;;;;;;10.53;49.73;99601.09;5093534;28;20047;-74
2024/03/25 00:19:21;;;;;;;5.15;1.48;;;;;;;10.17;51.36;99602.06;5093439;28;20059;-75
2024/03/25 00:22:26;;;;;;;3.40;1.30;;;;;;;10.18;50.65;99601.06;5092434;28;20051;-75
2024/03/25 00:25:30;;;;;;;4.97;1.50;;;;;;;10.03;51.83;99602.53;5093577;28;20055;-74
2024/03/25 00:28:35;;;;;;;4.15;1.25;;;;;;;10.00;51.74;99600.97;5093347;28;20047;-74
2024/03/25 00:31:39;;;;;;;5.13;0.90;;;;;;;10.13;51.86;99609.56;5093203;28;20051;-74
2024/03/25 00:34:43;;;;;;;4.10;1.20;;;;;;;10.03;51.65;99599.84;5093600;28;20055;-74
2024/03/25 00:37:48;;;;;;;18.00;8.88;;;;;;;10.11;51.49;99607.97;5092558;28;20051;-76
2024/03/25 00:40:53;;;;;;;16.70;7.43;;;;;;;10.51;50.04;99603.09;5092488;28;20509;-74
2024/03/25 00:43:57;;;;;;;13.18;6.57;;;;;;;10.78;49.28;99611.09;5093057;28;20055;-74
2024/03/25 00:47:02;;;;;;;14.73;6.43;;;;;;;10.69;48.82;99611.97;5096963;28;20099;-74
2024/03/25 00:50:10;;;;;;;8.23;3.47;;;;;;;10.49;49.20;99610.47;5093838;28;20052;-75
2024/03/25 00:53:14;;;;;;;5.60;2.20;;;;;;;10.77;47.87;99616.59;5076296;28;20502;-75
2024/03/25 00:56:18;;;;;;;11.20;5.07;;;;;;;10.92;47.32;99615.03;5064381;28;20051;-74
2024/03/25 00:59:23;;;;;;;5.38;2.28;;;;;;;11.00;46.54;99621.34;5064442;28;20051;-74
2024/03/25 01:02:28;;;;;;;4.18;1.33;;;;;;;10.92;46.20;99629.31;5064265;28;20059;-74
2024/03/25 01:05:32;;;;;;;3.15;1.60;;;;;;;10.85;45.71;99622.03;5076271;28;20056;-74
2024/03/25 01:08:37;;;;;;;2.90;0.90;;;;;;;10.56;45.63;99624.09;5076405;28;20059;-74
2024/03/25 01:11:41;;;;;;;3.08;0.80;;;;;;;10.36;45.42;99634.97;5076410;28;20055;-74
2024/03/25 01:14:45;;;;;;;3.17;0.90;;;;;;;9.98;46.01;99637.81;5076211;28;20056;-74
2024/03/25 01:17:50;;;;;;;2.15;0.88;;;;;;;10.18;45.59;99633.25;5076072;28;20494;-76
2024/03/25 01:20:54;;;;;;;2.53;0.70;;;;;;;10.34;45.30;99622.72;5076199;28;20075;-74
2024/03/25 01:23:58;;;;;;;2.33;1.10;;;;;;;10.37;46.03;99628.59;5075710;28;20051;-74
2024/03/25 01:27:02;;;;;;;2.58;1.10;;;;;;;10.39;45.36;99631.16;5063548;28;20052;-75
2024/03/25 01:30:07;;;;;;;3.38;1.00;;;;;;;10.54;44.93;99626.09;5076058;28;20054;-75
2024/03/25 01:33:12;;;;;;;2.47;1.00;;;;;;;10.67;45.56;99631.91;5075599;28;20376;-75
2024/03/25 01:36:17;;;;;;;2.38;0.90;;;;;;;10.63;45.74;99620.66;5063705;28;20051;-75
2024/03/25 01:39:21;;;;;;;1.77;0.70;;;;;;;10.47;46.74;99620.47;5075440;28;20055;-75
2024/03/25 01:42:26;;;;;;;7.28;0.90;;;;;;;10.32;46.74;99630.88;5063425;28;20043;-75
2024/03/25 01:45:33;;;;;;;2.83;0.90;;;;;;;10.43;45.47;99611.91;5051850;28;20399;-75
2024/03/25 01:48:38;;;;;;;3.63;0.70;;;;;;;10.52;45.23;99604.78;5075931;28;20055;-75
2024/03/25 01:51:43;;;;;;;6.22;0.73;;;;;;;10.60;45.33;99609.38;5075158;28;20079;-75
2024/03/25 01:54:47;;;;;;;2.33;0.90;;;;;;;10.45;44.22;99611.75;5075761;28;20055;-74
2024/03/25 01:57:52;;;;;;;1.90;0.73;;;;;;;10.31;44.00;99620.31;5075858;28;20056;-74
2024/03/25 02:00:58;;;;;;;2.58;0.70;;;;;;;10.11;44.35;99614.19;5075769;28;20051;-74
2024/03/25 02:04:03;;;;;;;1.73;0.68;;;;;;;10.33;44.12;99615.66;5075488;28;20056;-74
2024/03/25 02:07:08;;;;;;;2.67;1.30;;;;;;;10.37;44.45;99617.88;5075440;28;20052;-74
2024/03/25 02:10:16;;;;;;;1.42;0.57;;;;;;;10.51;44.19;99605.78;5051318;28;20055;-74
2024/03/25 02:13:19;;;;;;;1.20;0.43;;;;;;;10.60;44.00;99604.84;5051486;28;20055;-74
2024/03/25 02:16:24;;;;;;;2.00;1.00;;;;;;;10.56;44.11;99602.63;5075246;28;20061;-73
2024/03/25 02:19:28;;;;;;;2.45;0.80;;;;;;;10.54;44.12;99601.97;5075152;28;20047;-74
2024/03/25 02:22:35;;;;;;;1.85;0.60;;;;;;;9.67;45.79;99610.47;5062771;28;20059;-75
2024/03/25 02:25:42;;;;;;;3.20;0.85;;;;;;;9.67;45.92;99614.97;5074655;28;20048;-74
2024/03/25 02:28:46;;;;;;;1.55;0.60;;;;;;;9.90;45.29;99618.13;5074922;28;20469;-74
2024/03/25 02:31:52;;;;;;;2.92;0.98;;;;;;;10.19;44.65;99621.53;5074973;28;20048;-74
2024/03/25 02:34:57;;;;;;;1.65;0.70;;;;;;;10.16;45.12;99621.81;5062585;28;20071;-74
2024/03/25 02:38:03;;;;;;;2.40;0.80;;;;;;;9.94;45.48;99617.69;5062370;28;20043;-74
2024/03/25 02:41:07;;;;;;;4.88;0.98;;;;;;;10.12;44.89;99610.53;5074563;28;20482;-75
2024/03/25 02:44:12;;;;;;;2.72;0.90;;;;;;;10.05;44.74;99619.31;5062212;28;20047;-75
2024/03/25 02:47:17;;;;;;;2.78;0.80;;;;;;;10.18;44.48;99611.78;5072502;28;20043;-75
2024/03/25 02:50:21;;;;;;;1.65;0.70;;;;;;;10.20;44.47;99612.47;5053926;28;20056;-75
2024/03/25 02:53:26;;;;;;;2.35;0.63;;;;;;;10.14;44.82;99607.72;5053935;28;20048;-75
2024/03/25 02:56:29;;;;;;;;;;;;;;;10.18;45.11;99614.47;5054873;28;20056;-75
2024/03/25 02:59:33;;;;;;;1.35;0.50;;;;;;;9.63;45.27;99616.25;5041527;28;19921;-74
2024/03/25 03:02:38;;;;;;;2.35;1.13;;;;;;;9.58;44.84;99615.88;5041948;28;20060;-74
2024/03/25 03:05:42;;;;;;;1.58;0.60;;;;;;;9.78;44.32;99609.41;5053831;28;20518;-75
2024/03/25 03:08:46;;;;;;;4.28;0.70;;;;;;;9.65;44.71;99607.06;5053556;28;20044;-75
2024/03/25 03:11:51;;;;;;;2.58;0.73;;;;;;;9.99;44.16;99614.53;5053716;28;20052;-75
2024/03/25 03:14:55;;;;;;;2.38;0.80;;;;;;;9.88;43.80;99610.22;5054051;28;20044;-74
2024/03/25 03:17:59;;;;;;;2.00;0.68;;;;;;;9.82;43.55;99608.16;5053616;28;20077;-76
2024/03/25 03:21:04;;;;;;;3.08;0.85;;;;;;;9.97;43.52;99605.81;5054019;28;20048;-75
2024/03/25 03:24:08;;;;;;;1.70;0.75;;;;;;;10.02;43.64;99600.84;5053630;28;20407;-75
2024/03/25 03:27:12;;;;;;;1.67;0.55;;;;;;;10.01;44.03;99596.47;5053921;28;20491;-75
2024/03/25 03:30:17;;;;;;;2.33;0.90;;;;;;;10.05;44.63;99603.25;5053541;28;20048;-75
2024/03/25 03:33:21;;;;;;;2.17;0.73;;;;;;;10.00;45.33;99608.19;5041405;28;20056;-75
2024/03/25 03:36:25;;;;;;;2.33;1.13;;;;;;;10.00;45.71;99598.31;5053331;28;20076;-75
2024/03/25 03:39:29;;;;;;;2.47;0.90;;;;;;;9.78;46.42;99604.91;5053620;28;20052;-75
2024/03/25 03:42:34;;;;;;;2.22;0.70;;;;;;;9.30;47.40;99617.63;5053283;28;20063;-75
2024/03/25 03:45:38;;;;;;;2.45;0.70;;;;;;;9.74;46.76;99608.88;5053645;28;20056;-75
2024/03/25 03:48:42;;;;;;;2.45;0.88;;;;;;;9.58;46.50;99594.44;5053203;28;20051;-75
2024/03/25 03:51:46;;;;;;;2.35;0.70;;;;;;;10.08;45.69;99594.88;5065674;28;20064;-75
2024/03/25 03:54:51;;;;;;;4.00;0.75;;;;;;;10.14;46.02;99605.03;5073430;28;20051;-76
2024/03/25 03:57:55;;;;;;;2.78;0.70;;;;;;;9.63;46.83;99614.41;5072767;28;20489;-74
2024/03/25 04:01:00;;;;;;;2.30;0.70;;;;;;;9.20;47.25;99621.31;5082006;28;20043;-75
2024/03/25 04:04:04;;;;;;;2.55;0.70;;;;;;;9.20;46.79;99619.47;5081155;28;20391;-74
2024/03/25 04:07:09;;;;;;;2.30;0.80;;;;;;;9.03;47.02;99620.22;5080820;28;20052;-74
2024/03/25 04:10:12;;;;;;;;;;;;;;;9.25;46.68;99617.22;5081839;28;20537;-74
2024/03/25 04:13:18;;;;;;;;;;;;;;;9.31;46.57;99627.34;5093980;28;19916;-74
2024/03/25 04:16:22;;;;;;;2.65;0.50;;;;;;;9.24;45.88;99625.38;5092628;28;20355;-74
2024/03/25 04:19:27;;;;;;;2.08;0.75;;;;;;;9.29;44.95;99623.97;5083485;28;20051;-74
2024/03/25 04:22:30;;;;;;;2.63;0.85;;;;;;;9.11;44.88;99625.66;5097236;28;20059;-74
2024/03/25 04:25:39;;;;;;;1.88;0.50;;;;;;;9.17;44.22;99627.78;5097536;28;20051;-74
2024/03/25 04:28:43;;;;;;;4.22;0.40;;;;;;;9.31;43.93;99621.97;5097322;28;20055;-74
2024/03/25 04:31:47;;;;;;;;;;;;;;;8.76;44.08;99628.13;5097941;28;20059;-75
2024/03/25 04:34:51;;;;;;;;;;;;;;;8.82;44.19;99635.56;5096512;28;19920;-75
2024/03/25 04:37:55;;;;;;;;;;;;;;;8.31;45.07;99631.31;5097554;28;19916;-74
2024/03/25 04:40:59;;;;;;;4.65;0.70;;;;;;;8.48;44.84;99635.13;5097260;28;19920;-75
2024/03/25 04:44:03;;;;;;;1.88;0.40;;;;;;;8.43;44.81;99632.88;5096400;28;20055;-75
2024/03/25 04:47:08;;;;;;;2.15;0.63;;;;;;;8.31;45.48;99644.69;5074978;28;20135;-74
2024/03/25 04:50:12;;;;;;;1.70;0.68;;;;;;;8.14;45.76;99650.66;5074502;28;20451;-75
2024/03/25 04:53:17;;;;;;;1.75;0.57;;;;;;;8.15;45.60;99644.31;5074698;28;20135;-75
2024/03/25 04:56:21;;;;;;;2.15;0.50;;;;;;;7.93;45.80;99649.88;5074668;28;20052;-74
2024/03/25 04:59:25;;;;;;;1.60;0.70;;;;;;;7.69;46.58;99657.38;5074517;28;20055;-74
2024/03/25 05:02:29;;;;;;;3.95;0.60;;;;;;;7.53;47.36;99657.03;5074627;28;20059;-74
2024/03/25 05:05:34;;;;;;;1.83;0.85;;;;;;;7.76;46.66;99659.38;5073966;28;20059;-75
2024/03/25 05:08:38;;;;;;;1.90;0.70;;;;;;;7.96;45.94;99657.63;5062243;28;20051;-75
2024/03/25 05:11:43;;;;;;;1.17;0.40;;;;;;;7.77;46.29;99661.06;5074219;28;20491;-75
2024/03/25 05:14:47;;;;;;;1.73;0.50;;;;;;;7.65;45.80;99664.78;5073948;28;20147;-75
2024/03/25 05:17:52;;;;;;;1.33;0.57;;;;;;;7.96;44.70;99665.63;5087998;28;20055;-75
2024/03/25 05:20:56;;;;;;;1.67;0.57;;;;;;;8.08;43.94;99671.72;5096505;28;20059;-75
2024/03/25 05:24:01;;;;;;;1.25;0.52;;;;;;;7.80;44.38;99684.81;5096378;28;20509;-75
2024/03/25 05:27:05;;;;;;;2.45;0.60;;;;;;;8.15;43.11;99684.41;5094152;28;20043;-75
2024/03/25 05:30:10;;;;;;;2.03;0.80;;;;;;;8.16;42.79;99696.81;5095677;28;20383;-75
2024/03/25 05:33:15;;;;;;;1.58;0.40;;;;;;;8.04;42.76;99708.59;5095985;28;20043;-75
2024/03/25 05:36:19;;;;;;;1.25;0.68;;;;;;;8.41;42.40;99703.53;5096176;28;20039;-75
2024/03/25 05:39:24;;;;;;;1.98;0.52;;;;;;;8.60;41.99;99708.06;5095861;28;20047;-75
2024/03/25 05:42:28;;;;;;;3.92;0.47;;;;;;;8.70;42.20;99711.59;5095613;28;20059;-75
2024/03/25 05:45:33;;;;;;;3.92;1.52;;;;;;;8.64;42.24;99713.00;5095197;28;20052;-75
2024/03/25 05:48:37;;;;;;;1.90;0.40;;;;;;;8.84;41.89;99720.06;5095398;28;20055;-75
2024/03/25 05:51:41;;;;;;;3.03;0.50;;;;;;;9.36;40.29;99708.09;5079177;28;20055;-75
2024/03/25 05:54:46;;;;;;;2.58;0.70;;;;;;;9.58;40.10;99715.00;5075367;28;20506;-75
2024/03/25 05:57:50;;;;;;;1.52;0.55;;;;;;;9.45;40.46;99706.41;5063367;28;20063;-75
2024/03/25 06:00:54;;;;;;;3.97;0.60;;;;;;;9.42;40.01;99712.91;5073809;28;20052;-75
2024/03/25 06:04:02;;;;;;;2.90;0.90;;;;;;;9.47;39.44;99713.31;5059542;28;20051;-74
2024/03/25 06:07:06;;;;;;;2.28;0.65;;;;;;;9.35;39.21;99711.78;5074998;28;20497;-74
2024/03/25 06:10:10;;;;;;;2.17;0.47;;;;;;;9.53;39.27;99711.91;5062873;28;20052;-74
2024/03/25 06:13:15;;;;;;;0.77;0.32;;;;;;;9.65;38.65;99716.91;5075011;28;20523;-75
2024/03/25 06:16:19;;;;;;;1.75;0.50;;;;;;;10.12;37.98;99725.03;5074963;28;20043;-75
2024/03/25 06:19:24;;;;;;;;;;;;;;;10.56;37.62;99718.88;5075597;28;20053;-75
2024/03/25 06:22:28;;;;;;;3.03;1.60;;;;;;;10.36;37.13;99722.66;5074449;28;20272;-74
2024/03/25 06:25:33;;;;;;;2.40;0.70;;;;;;;10.51;37.05;99723.84;5062571;28;20048;-74
2024/03/25 06:28:37;;;;;;;2.28;0.70;;;;;;;10.79;36.77;99717.44;5061743;28;20499;-74
2024/03/25 06:35:05;;;;;;;3.80;0.60;;;;;;;11.26;35.97;99720.75;5054866;28;20075;-75
2024/03/25 06:38:11;;;;;;;2.20;0.70;;;;;;;10.83;37.21;99718.00;5054686;28;20055;-74
2024/03/25 06:41:15;;;;;;;4.38;0.77;;;;;;;11.19;36.82;99721.53;5054572;28;20048;-75
2024/03/25 06:44:20;;;;;;;2.15;0.70;;;;;;;11.26;36.94;99722.63;5054243;28;20071;-75
2024/03/25 06:47:24;;;;;;;2.70;0.50;;;;;;;10.95;37.08;99720.31;5054550;28;20444;-75
2024/03/25 06:50:29;;;;;;;8.48;3.33;;;;;;;11.41;36.08;99729.09;5053839;28;20048;-75
2024/03/25 06:53:37;;;;;;;7.68;1.85;;;;;;;11.32;36.66;99725.53;5054137;28;20052;-74
2024/03/25 06:56:41;;;;;;;5.90;0.75;;;;;;;11.69;36.52;99730.72;5053926;28;20048;-74
2024/03/25 06:59:46;;;;;;;9.35;0.98;;;;;;;11.67;35.42;99722.78;5041976;28;20056;-75
2024/03/25 07:02:51;;;;;;;24.38;1.50;;;;;;;11.74;35.06;99723.03;5053853;28;20052;-72
2024/03/25 07:05:56;;;;;;;7.28;1.02;;;;;;;12.53;34.42;99723.63;5041398;28;20056;-74
2024/03/25 07:09:00;;;;;;;12.05;1.02;;;;;;;13.22;33.81;99722.50;5041921;28;20388;-75
2024/03/25 07:12:05;;;;;;;13.65;2.65;;;;;;;13.53;33.37;99721.66;5047886;28;20052;-74
2024/03/25 07:15:09;;;;;;;12.40;1.60;;;;;;;13.82;32.83;99721.16;5045372;28;20055;-73
2024/03/25 07:18:14;;;;;;;17.00;2.40;;;;;;;13.85;32.91;99723.47;5053598;28;20052;-72
2024/03/25 07:21:19;;;;;;;29.95;3.80;;;;;;;13.70;33.02;99736.81;5053976;28;20056;-74
2024/03/25 07:24:23;;;;;;;27.30;2.78;;;;;;;13.17;34.05;99744.56;5053862;28;20060;-73
2024/03/25 07:27:27;;;;;;;24.15;3.97;;;;;;;13.70;33.79;99742.22;5053366;28;20067;-72
2024/03/25 07:30:32;;;;;;;27.38;4.28;;;;;;;14.42;33.13;99743.13;5041388;28;20503;-75
2024/03/25 07:33:37;;;;;;;36.33;4.00;;;;;;;14.60;32.17;99751.84;5041645;28;20052;-75
2024/03/25 07:36:41;;;;;;;28.67;3.17;;;;;;;14.61;31.86;99749.97;5053580;28;20072;-74
2024/03/25 07:39:46;;;;;;;15.23;2.30;;;;;;;14.78;32.18;99747.03;5018680;28;20047;-74
2024/03/25 07:42:50;;;;;;;13.10;2.15;;;;;;;15.10;31.93;99745.16;5053438;28;20495;-76
2024/03/25 07:45:55;;;;;;;12.80;1.58;;;;;;;17.39;29.67;99737.81;5041456;28;20052;-75
2024/03/25 07:48:59;;;;;;;14.85;1.40;;;;;;;19.61;25.87;99737.50;5041527;28;20385;-76
2024/03/25 07:52:04;;;;;;;7.93;0.90;;;;;;;22.84;22.34;99748.31;5053100;28;20048;-76
2024/03/25 07:55:09;;;;;;;5.35;0.60;;;;;;;26.07;18.27;99728.50;5053382;28;20052;-75
2024/03/25 07:58:13;;;;;;;1.02;0.30;;;;;;;28.54;15.38;99740.53;5029958;28;20052;-76
2024/03/25 08:01:18;;;;;;;1.40;0.30;;;;;;;30.35;14.78;99740.31;5053617;28;20052;-76
2024/03/25 08:04:22;;;;;;;1.33;0.40;;;;;;;31.98;14.49;99753.28;5053222;28;20072;-77
2024/03/25 08:07:27;;;;;;;1.00;0.30;;;;;;;32.27;14.65;99747.78;5053530;28;20048;-78
2024/03/25 08:10:31;;;;;;;3.33;0.35;;;;;;;33.69;13.84;99740.31;5053851;28;20056;-78
2024/03/25 08:13:36;;;;;;;1.75;0.30;;;;;;;33.66;13.47;99745.66;5029581;28;20423;-76
2024/03/25 08:16:41;;;;;;;1.35;0.30;;;;;;;34.00;14.22;99749.00;5029626;28;20052;-76
2024/03/25 08:19:45;;;;;;;1.02;0.43;;;;;;;35.34;13.57;99753.53;5053467;28;20056;-78
2024/03/25 08:22:50;;;;;;;1.05;0.40;;;;;;;36.22;13.32;99753.75;5041090;28;20052;-76
2024/03/25 08:25:54;;;;;;;2.20;0.60;;;;;;;35.37;13.39;99744.56;5053054;28;20071;-77
2024/03/25 08:28:59;;;;;;;1.95;0.50;;;;;;;36.84;13.02;99737.03;5053455;28;20052;-77
2024/03/25 08:32:04;;;;;;;5.07;1.10;;;;;;;36.35;13.29;99738.88;5053265;28;20064;-76
2024/03/25 08:35:09;;;;;;;6.90;2.00;;;;;;;36.29;13.12;99748.56;5053147;28;20067;-77
2024/03/25 08:38:13;;;;;;;6.70;2.55;;;;;;;35.58;13.71;99734.63;5053273;28;20048;-77
2024/03/25 08:41:18;;;;;;;4.53;1.08;;;;;;;36.68;12.74;99742.22;5053191;28;20044;-77
2024/03/25 08:44:23;;;;;;;2.42;0.85;;;;;;;36.30;12.87;99739.00;5053043;28;20048;-77
2024/03/25 08:47:28;;;;;;;4.05;0.80;;;;;;;36.83;12.50;99738.19;5053176;28;20373;-77
2024/03/25 08:50:32;;;;;;;2.05;0.77;;;;;;;36.50;12.83;99734.88;5052858;28;20048;-78
2024/03/25 08:53:37;;;;;;;2.10;0.60;;;;;;;35.87;12.72;99730.28;5029644;28;20048;-78
2024/03/25 08:56:43;;;;;;;1.85;0.82;;;;;;;35.64;13.02;99722.19;5053069;28;20060;-77
2024/03/25 08:59:47;;;;;;;2.33;0.80;;;;;;;35.09;12.80;99719.47;5029501;28;20052;-77
2024/03/25 09:02:51;;;;;;;2.15;0.80;;;;;;;35.48;12.96;99718.88;5040653;28;20129;-76
2024/03/25 09:05:56;;;;;;;2.92;0.95;;;;;;;34.95;12.85;99724.19;5042008;28;20060;-78
2024/03/25 09:12:23;;;;;;;4.10;1.90;;;;;;;35.59;13.39;99736.25;5056555;28;20052;-79
2024/03/25 09:15:30;;;;;;;4.75;1.15;;;;;;;34.62;12.97;99731.81;5056556;28;20388;-77
2024/03/25 09:18:34;;;;;;;1.30;0.65;;;;;;;33.35;13.46;99734.09;5044159;28;20056;-76
2024/03/25 09:21:41;;;;;;;2.25;0.90;;;;;;;31.63;15.06;99731.31;5056398;28;20047;-76
2024/03/25 09:24:45;;;;;;;2.55;0.98;;;;;;;30.14;15.82;99733.94;5044023;28;20072;-76
2024/03/25 09:27:50;;;;;;;2.72;0.85;;;;;;;28.28;17.19;99731.25;5044022;28;20059;-78
2024/03/25 09:30:55;;;;;;;3.17;1.00;;;;;;;26.82;18.63;99726.06;5043886;28;20167;-76
2024/03/25 09:33:59;;;;;;;2.38;0.90;;;;;;;26.02;19.76;99725.66;5043898;28;20060;-77
2024/03/25 09:37:04;;;;;;;2.83;1.17;;;;;;;25.53;20.63;99732.78;5032574;28;20491;-77
2024/03/25 09:40:09;;;;;;;3.38;1.05;;;;;;;24.66;21.41;99722.97;5043495;28;20135;-77
2024/03/25 09:43:40;;;;;;;3.17;1.33;;;;;;;24.28;21.93;99707.00;5055978;28;20044;-78
2024/03/25 09:46:45;;;;;;;4.32;1.20;;;;;;;23.07;23.36;99704.66;5062527;28;20056;-75
2024/03/25 09:49:51;;;;;;;9.25;1.92;;;;;;;22.55;24.19;99703.38;5055751;28;20388;-74
2024/03/25 09:52:55;;;;;;;3.05;1.60;;;;;;;22.05;25.35;99698.25;5043578;28;20056;-75
2024/03/25 09:56:03;;;;;;;2.63;1.55;;;;;;;21.60;26.13;99697.53;5055709;28;20396;-75
2024/03/25 09:59:08;;;;;;;5.50;1.58;;;;;;;21.26;27.32;99691.44;5043425;28;20052;-77
2024/03/25 10:02:14;;;;;;;6.47;1.50;;;;;;;20.65;28.96;99676.63;5055614;28;20440;-74
2024/03/25 10:05:19;;;;;;;3.53;1.60;;;;;;;20.05;30.42;99677.78;5053717;28;20048;-75
2024/03/25 10:08:29;;;;;;;4.45;1.70;;;;;;;20.29;31.47;99679.06;5055435;28;20044;-76
2024/03/25 10:11:35;;;;;;;3.83;1.63;;;;;;;20.45;32.13;99678.56;5054679;28;20064;-75
2024/03/25 10:14:42;;;;;;;6.82;3.15;;;;;;;20.32;33.37;99679.44;5043070;28;20056;-76
2024/03/25 10:17:49;;;;;;;9.02;4.10;;;;;;;20.34;34.21;99671.06;5042794;28;20384;-75
2024/03/25 10:20:53;;;;;;;7.43;2.38;;;;;;;20.56;33.91;99665.13;5055263;28;20052;-78
2024/03/25 10:23:58;;;;;;;3.83;1.77;;;;;;;20.34;35.20;99666.47;5055178;28;20052;-75
2024/03/25 10:27:05;;;;;;;6.28;2.30;;;;;;;20.01;36.25;99661.06;5055210;28;20381;-77
2024/03/25 10:30:11;;;;;;;6.13;2.30;;;;;;;19.94;37.08;99657.50;5055170;28;20048;-77
2024/03/25 10:33:15;;;;;;;5.63;1.60;;;;;;;19.72;37.54;99653.34;5042770;28;20495;-77
2024/03/25 10:36:21;;;;;;;11.60;2.90;;;;;;;19.77;38.06;99647.25;5055065;28;20502;-77
2024/03/25 10:39:29;;;;;;;5.25;1.90;;;;;;;19.72;38.46;99650.63;5054783;28;20388;-77
2024/03/25 10:42:35;;;;;;;7.47;2.10;;;;;;;19.47;38.85;99646.84;5054627;28;20048;-75
2024/03/25 10:45:45;;;;;;;6.38;2.17;;;;;;;19.59;38.52;99637.00;5042288;28;20056;-75
2024/03/25 10:48:59;;;;;;;4.25;2.10;;;;;;;19.60;38.25;99640.56;5054344;28;20048;-77
2024/03/25 10:52:06;;;;;;;5.22;2.00;;;;;;;19.64;39.13;99631.75;5070994;28;20056;-76
2024/03/25 10:55:10;;;;;;;5.78;2.10;;;;;;;19.51;38.97;99631.75;5074636;28;20075;-76
2024/03/25 10:58:16;;;;;;;5.43;2.25;;;;;;;19.28;38.52;99621.22;5074261;28;20044;-76
2024/03/25 11:01:22;;;;;;;5.00;2.50;;;;;;;19.44;39.12;99609.13;5074515;28;20051;-76
2024/03/25 11:04:27;;;;;;;5.05;2.42;;;;;;;19.23;39.49;99612.84;5074357;28;20593;-76
2024/03/25 11:07:32;;;;;;;4.90;2.28;;;;;;;19.06;40.24;99608.06;5073460;28;20399;-76
2024/03/25 11:10:44;;;;;;;8.05;2.65;;;;;;;18.87;39.67;99612.41;5073380;28;20051;-75
2024/03/25 11:13:48;;;;;;;6.40;2.55;;;;;;;18.80;41.28;99606.94;5073241;28;20494;-75
2024/03/25 11:16:52;;;;;;;7.80;2.58;;;;;;;19.02;41.59;99610.34;5052258;28;20048;-76
2024/03/25 11:20:10;;;;;;;5.70;2.40;;;;;;;19.34;41.04;99603.25;5040583;28;20408;-77
2024/03/25 11:23:14;;;;;;;5.60;2.85;;;;;;;19.27;40.81;99605.13;5051983;28;20056;-76
2024/03/25 11:26:24;;;;;;;7.93;2.85;;;;;;;19.30;40.89;99591.13;5040627;28;20048;-77
2024/03/25 11:29:30;;;;;;;8.20;2.95;;;;;;;19.11;41.11;99586.50;5039827;28;20056;-76
2024/03/25 11:32:51;;;;;;;4.75;3.03;;;;;;;19.27;41.41;99592.38;5051973;28;20140;-77
2024/03/25 11:35:55;;;;;;;4.95;2.65;;;;;;;19.01;40.39;99591.50;5051904;28;20064;-78
2024/03/25 11:39:04;;;;;;;9.25;3.22;;;;;;;19.22;38.40;99575.81;5040498;28;20055;-77
2024/03/25 11:42:09;;;;;;;8.43;2.20;;;;;;;19.16;38.15;99581.28;5051355;28;20439;-77
2024/03/25 11:45:17;;;;;;;3.53;2.15;;;;;;;19.00;38.13;99584.38;5051763;28;20140;-77
2024/03/25 11:48:21;;;;;;;4.70;2.10;;;;;;;19.20;39.15;99586.09;5051871;28;20052;-77
2024/03/25 11:51:26;;;;;;;7.55;2.47;;;;;;;19.39;38.45;99577.13;5051100;28;20044;-77
2024/03/25 11:54:32;;;;;;;3.75;1.90;;;;;;;19.45;37.43;99572.72;5069171;28;20052;-76
2024/03/25 11:57:37;;;;;;;5.05;2.38;;;;;;;19.59;37.52;99570.81;5073484;28;20059;-76
2024/03/25 12:00:46;;;;;;;5.80;2.05;;;;;;;19.67;37.06;99566.00;5073167;28;20048;-76
2024/03/25 12:03:50;;;;;;;4.40;2.33;;;;;;;19.57;38.45;99562.88;5073587;28;20056;-83
2024/03/25 12:06:56;;;;;;;5.15;2.40;;;;;;;19.70;38.11;99565.53;5072852;28;20048;-82
2024/03/25 12:13:27;;;;;;;4.80;1.92;;;;;;;19.68;35.45;99542.28;5073691;28;20067;-77
2024/03/25 12:16:32;;;;;;;4.57;1.77;;;;;;;19.64;35.00;99538.34;5073440;28;20068;-76
2024/03/25 12:19:36;;;;;;;5.43;2.28;;;;;;;19.48;35.08;99534.16;5073539;28;20384;-77
2024/03/25 12:22:41;;;;;;;3.45;1.65;;;;;;;19.65;35.86;99529.97;5073499;28;20043;-76
2024/03/25 12:25:49;;;;;;;3.38;2.03;;;;;;;19.33;35.04;99531.63;5072595;28;20167;-77
2024/03/25 12:28:54;;;;;;;3.22;1.73;;;;;;;19.42;35.39;99519.53;5073443;28;20051;-76
2024/03/25 12:32:01;;;;;;;4.85;2.10;;;;;;;19.60;35.57;99529.78;5073414;28;20048;-77
2024/03/25 12:35:12;;;;;;;4.25;1.95;;;;;;;19.59;34.06;99521.81;5072561;28;20107;-74
2024/03/25 12:38:28;;;;;;;4.78;1.80;;;;;;;19.60;35.74;99527.06;5061078;28;20067;-78
2024/03/25 12:41:33;;;;;;;4.32;1.90;;;;;;;19.61;35.24;99520.53;5075704;28;20051;-78
2024/03/25 12:44:38;;;;;;;2.97;1.80;;;;;;;19.59;35.32;99514.47;5076729;28;20486;-77
2024/03/25 12:47:43;;;;;;;4.20;1.92;;;;;;;19.97;34.85;99506.41;5077119;28;20055;-77
2024/03/25 12:50:47;;;;;;;4.50;1.67;;;;;;;19.95;36.24;99514.78;5068306;28;20052;-73
2024/03/25 12:53:52;;;;;;;3.97;2.00;;;;;;;20.04;35.82;99510.78;5057007;28;20052;-75
2024/03/25 12:56:56;;;;;;;4.55;2.08;;;;;;;20.37;36.28;99504.38;5056940;28;20056;-74
2024/03/25 13:00:04;;;;;;;4.90;2.35;;;;;;;20.53;36.10;99504.69;5056614;28;20067;-74
2024/03/25 13:03:09;;;;;;;7.07;2.05;;;;;;;20.59;34.22;99500.25;5044485;28;20491;-73
2024/03/25 13:06:14;;;;;;;6.43;2.08;;;;;;;20.49;35.22;99497.97;5056717;28;20052;-74
2024/03/25 13:09:19;;;;;;;4.75;2.17;;;;;;;21.33;32.55;99492.13;5056609;28;20381;-73
2024/03/25 13:12:24;;;;;;;5.43;1.83;;;;;;;20.96;32.56;99499.31;5044615;28;20048;-73
2024/03/25 13:15:28;;;;;;;4.30;1.80;;;;;;;20.97;30.99;99506.44;5044319;28;20056;-74
2024/03/25 13:18:32;;;;;;;2.85;1.60;;;;;;;20.90;30.72;99499.38;5056496;28;20060;-78
2024/03/25 13:21:38;;;;;;;3.63;2.03;;;;;;;20.31;31.97;99497.03;5044438;28;20051;-75
2024/03/25 13:24:43;;;;;;;5.22;2.13;;;;;;;20.77;31.90;99505.75;5056290;28;20055;-75
2024/03/25 13:27:48;;;;;;;3.92;1.92;;;;;;;20.76;31.11;99480.38;5056290;28;20063;-75
2024/03/25 13:30:52;;;;;;;4.03;1.95;;;;;;;20.81;32.24;99482.47;5056316;28;20052;-76
2024/03/25 13:33:57;;;;;;;3.60;1.80;;;;;;;20.80;31.90;99471.75;5056147;28;20056;-75
2024/03/25 13:37:02;;;;;;;4.18;1.63;;;;;;;20.95;31.79;99475.84;5055767;28;20048;-75
2024/03/25 13:40:09;;;;;;;5.72;2.22;;;;;;;20.89;32.39;99471.25;5043829;28;20377;-75
2024/03/25 13:43:13;;;;;;;8.35;2.10;;;;;;;20.97;32.14;99486.50;5043784;28;20115;-75
2024/03/25 13:46:19;;;;;;;3.50;1.73;;;;;;;20.72;31.68;99484.59;5043357;28;20063;-75
2024/03/25 13:49:24;;;;;;;5.65;1.80;;;;;;;20.53;31.88;99484.75;5043623;28;20512;-75
2024/03/25 13:52:28;;;;;;;3.53;1.90;;;;;;;20.44;32.07;99480.63;5055262;28;20479;-75
2024/03/25 13:55:33;;;;;;;5.95;2.20;;;;;;;20.38;31.97;99482.31;5055747;28;20067;-74
2024/03/25 13:58:37;;;;;;;3.92;1.60;;;;;;;20.63;32.25;99468.75;5043465;28;20084;-75
2024/03/25 14:01:42;;;;;;;3.75;1.73;;;;;;;20.60;31.99;99477.34;5055648;28;20055;-75
2024/03/25 14:04:47;;;;;;;4.03;1.45;;;;;;;20.81;31.50;99465.25;5055584;28;20384;-75
2024/03/25 14:07:51;;;;;;;3.38;1.60;;;;;;;20.64;31.87;99462.25;5055594;28;20376;-76
2024/03/25 14:11:00;;;;;;;4.60;1.52;;;;;;;20.78;32.79;99461.06;5043326;28;20095;-76
2024/03/25 14:14:04;;;;;;;5.63;2.25;;;;;;;20.42;33.83;99459.00;5043217;28;20063;-74
2024/03/25 14:17:08;;;;;;;5.57;2.20;;;;;;;20.28;34.31;99464.75;5055443;28;20056;-76
2024/03/25 14:20:13;;;;;;;4.28;2.53;;;;;;;20.22;34.19;99454.72;5055329;28;20056;-75
2024/03/25 14:23:18;;;;;;;4.30;2.33;;;;;;;20.33;34.29;99457.63;5055441;28;20048;-77
2024/03/25 14:26:22;;;;;;;4.68;2.10;;;;;;;19.99;34.44;99441.63;5055022;28;20048;-76
2024/03/25 14:29:27;;;;;;;4.95;2.10;;;;;;;20.09;34.90;99440.13;5055162;28;20052;-76
2024/03/25 14:32:31;;;;;;;5.10;2.15;;;;;;;20.12;34.69;99439.66;5042633;28;20052;-76
2024/03/25 14:35:35;;;;;;;4.25;2.15;;;;;;;19.92;33.86;99444.38;5042848;28;20052;-77
2024/03/25 14:38:40;;;;;;;6.45;2.08;;;;;;;20.19;34.05;99441.53;5054979;28;20056;-77
2024/03/25 14:41:45;;;;;;;4.05;1.83;;;;;;;20.40;34.25;99442.03;5054970;28;20052;-78
2024/03/25 14:44:50;;;;;;;6.05;2.13;;;;;;;20.31;34.74;99434.34;5054714;28;20512;-77